PWSweather.com
Personal Weather Stations
Station Observations
MADWEATHER
MadeiraPT

MadeiraPT

Lat: 32.735, Lon: -17.194

Elevation: 1063

Station Type: Davis VantagePro2

Latest ConditionsUpdated 2:00:01 PM GMT Sunday, Jan 22, 2017
Currently Today's Max Today's Min Today's Average
Temperature 60.4°F15.8°C 63.1°F17.3°C 52.9°F11.6°C 56.9°F13.8°C
Dew Point 51.3°F10.7°C 53.1°F11.7°C 44.3°F6.8°C 48.5°F9.2°C
Winds 2.9 mph ESE4.7 kmh ESE 7.4 mph NE11.9 kmh NE - 3.0 mph 4.8 kmh
Wind Gusts 6.0 mph9.7 kmh 12.0 mph19.3 kmh - -
Humidity 72% 80% 67% 74%
Pressure 30.26 in1024.7 mb 30.31 in1026.4 mb 30.21 in1023.0 mb -
Hour Temp Dew Point Humidity Winds Wind Gusts Pressure Precip Precip Rate Daily Precip Total
02:00 PM 60.4°F15.8°C 51.3°F10.7°C 72% 2.9 mph ESE4.7 kmh ESE 6.0 mph9.7 kmh 30.26 in1024.7 mb - 0.00 in0.0 mm 0.00 in0.0 mm
01:50 PM 60.9°F16.1°C 52.2°F11.2°C 73% 6.3 mph ESE10.1 kmh ESE 9.0 mph14.5 kmh 30.26 in1024.7 mb - 0.00 in0.0 mm 0.00 in0.0 mm
01:40 PM 61.3°F16.3°C 51.9°F11.1°C 71% 4.3 mph ESE6.9 kmh ESE 6.0 mph9.7 kmh 30.26 in1024.7 mb - 0.00 in0.0 mm 0.00 in0.0 mm
01:30 PM 61.9°F16.6°C 52.4°F11.3°C 71% 3.8 mph ESE6.1 kmh ESE 6.0 mph9.7 kmh 30.27 in1025.1 mb - 0.00 in0.0 mm 0.00 in0.0 mm
01:20 PM 62.7°F17.1°C 52.4°F11.3°C 69% 6.5 mph ESE10.5 kmh ESE 10.0 mph16.1 kmh 30.27 in1025.1 mb - 0.00 in0.0 mm 0.00 in0.0 mm
01:10 PM 63.1°F17.3°C 52.7°F11.5°C 69% 4.2 mph ESE6.8 kmh ESE 6.0 mph9.7 kmh 30.28 in1025.4 mb - 0.00 in0.0 mm 0.00 in0.0 mm
01:00 PM 63.0°F17.2°C 53.1°F11.7°C 70% 5.8 mph E9.3 kmh E 10.0 mph16.1 kmh 30.28 in1025.4 mb - 0.00 in0.0 mm 0.00 in0.0 mm
12:50 PM 62.9°F17.2°C 52.6°F11.4°C 69% 5.4 mph E8.7 kmh E 7.0 mph11.3 kmh 30.28 in1025.4 mb - 0.00 in0.0 mm 0.00 in0.0 mm
12:40 PM 62.4°F16.9°C 52.5°F11.4°C 70% 6.1 mph E9.8 kmh E 9.0 mph14.5 kmh 30.29 in1025.7 mb - 0.00 in0.0 mm 0.00 in0.0 mm
12:30 PM 61.8°F16.6°C 50.7°F10.4°C 67% 1.3 mph NE2.1 kmh NE 6.0 mph9.7 kmh 30.29 in1025.7 mb - 0.00 in0.0 mm 0.00 in0.0 mm
12:20 PM 62.4°F16.9°C 52.1°F11.2°C 69% 3.7 mph NE6.0 kmh NE 5.0 mph8.0 kmh 30.30 in1026.1 mb - 0.00 in0.0 mm 0.00 in0.0 mm
12:10 PM 62.9°F17.2°C 51.8°F11.0°C 67% 4.0 mph NE6.4 kmh NE 6.0 mph9.7 kmh 30.30 in1026.1 mb - 0.00 in0.0 mm 0.00 in0.0 mm
12:00 PM 62.5°F16.9°C 52.5°F11.4°C 70% 1.8 mph NE2.9 kmh NE 5.0 mph8.0 kmh 30.30 in1026.1 mb - 0.00 in0.0 mm 0.00 in0.0 mm
11:50 AM 61.8°F16.6°C 51.5°F10.8°C 69% 2.9 mph NE4.7 kmh NE 5.0 mph8.0 kmh 30.30 in1026.1 mb - 0.00 in0.0 mm 0.00 in0.0 mm
11:40 AM 61.1°F16.2°C 50.5°F10.3°C 68% 0.9 mph NE1.4 kmh NE 3.0 mph4.8 kmh 30.30 in1026.1 mb - 0.00 in0.0 mm 0.00 in0.0 mm
11:30 AM 60.9°F16.1°C 50.7°F10.4°C 69% 2.0 mph NE3.2 kmh NE 4.0 mph6.4 kmh 30.30 in1026.1 mb - 0.00 in0.0 mm 0.00 in0.0 mm
11:20 AM 60.8°F16.0°C 51.0°F10.6°C 70% 0.7 mph NE1.1 kmh NE 2.0 mph3.2 kmh 30.31 in1026.4 mb - 0.00 in0.0 mm 0.00 in0.0 mm
11:10 AM 60.8°F16.0°C 51.3°F10.7°C 71% 2.4 mph NE3.9 kmh NE 5.0 mph8.0 kmh 30.31 in1026.4 mb - 0.00 in0.0 mm 0.00 in0.0 mm
11:00 AM 60.7°F15.9°C 52.0°F11.1°C 73% 0.8 mph NE1.3 kmh NE 3.0 mph4.8 kmh 30.30 in1026.1 mb - 0.00 in0.0 mm 0.00 in0.0 mm
10:50 AM 60.1°F15.6°C 51.4°F10.8°C 73% 1.1 mph NE1.8 kmh NE 2.0 mph3.2 kmh 30.30 in1026.1 mb - 0.00 in0.0 mm 0.00 in0.0 mm
10:40 AM 60.0°F15.6°C 51.7°F10.9°C 74% 1.1 mph NE1.8 kmh NE 2.0 mph3.2 kmh 30.30 in1026.1 mb - 0.00 in0.0 mm 0.00 in0.0 mm
10:30 AM 59.9°F15.5°C 52.0°F11.1°C 75% 0.7 mph NE1.1 kmh NE 2.0 mph3.2 kmh 30.30 in1026.1 mb - 0.00 in0.0 mm 0.00 in0.0 mm
10:20 AM 59.1°F15.1°C 51.2°F10.7°C 75% 1.5 mph NE2.4 kmh NE 5.0 mph8.0 kmh 30.30 in1026.1 mb - 0.00 in0.0 mm 0.00 in0.0 mm
10:10 AM 59.1°F15.1°C 51.2°F10.7°C 75% 2.1 mph NE3.4 kmh NE 3.0 mph4.8 kmh 30.30 in1026.1 mb - 0.00 in0.0 mm 0.00 in0.0 mm
10:00 AM 59.2°F15.1°C 51.3°F10.7°C 75% 0.9 mph NE1.4 kmh NE 3.0 mph4.8 kmh 30.29 in1025.7 mb - 0.00 in0.0 mm 0.00 in0.0 mm
09:50 AM 59.1°F15.1°C 51.5°F10.8°C 76% 2.8 mph NE4.5 kmh NE 6.0 mph9.7 kmh 30.29 in1025.7 mb - 0.00 in0.0 mm 0.00 in0.0 mm
09:40 AM 58.8°F14.9°C 51.6°F10.9°C 77% 1.9 mph NE3.1 kmh NE 3.0 mph4.8 kmh 30.29 in1025.7 mb - 0.00 in0.0 mm 0.00 in0.0 mm
09:30 AM 58.2°F14.6°C 51.3°F10.7°C 78% Calm Calm -- 30.29 in1025.7 mb - 0.00 in0.0 mm 0.00 in0.0 mm
09:20 AM 57.1°F13.9°C 50.7°F10.4°C 79% 1.1 mph NE1.8 kmh NE 2.0 mph3.2 kmh 30.28 in1025.4 mb - 0.00 in0.0 mm 0.00 in0.0 mm
09:10 AM 56.1°F13.4°C 49.3°F9.6°C 78% 0.7 mph NE1.1 kmh NE 1.0 mph1.6 kmh 30.28 in1025.4 mb - 0.00 in0.0 mm 0.00 in0.0 mm
09:00 AM 55.1°F12.8°C 47.7°F8.7°C 76% 3.0 mph NE4.8 kmh NE 4.0 mph6.4 kmh 30.27 in1025.1 mb - 0.00 in0.0 mm 0.00 in0.0 mm
08:50 AM 54.4°F12.4°C 47.0°F8.3°C 76% 3.9 mph NE6.3 kmh NE 5.0 mph8.0 kmh 30.27 in1025.1 mb - 0.00 in0.0 mm 0.00 in0.0 mm
08:40 AM 53.9°F12.2°C 45.4°F7.4°C 73% 3.7 mph NE6.0 kmh NE 5.0 mph8.0 kmh 30.26 in1024.7 mb - 0.00 in0.0 mm 0.00 in0.0 mm
08:30 AM 53.7°F12.1°C 45.2°F7.3°C 73% 3.0 mph NE4.8 kmh NE 4.0 mph6.4 kmh 30.26 in1024.7 mb - 0.00 in0.0 mm 0.00 in0.0 mm
08:20 AM 53.4°F11.9°C 44.6°F7.0°C 72% 5.2 mph NE8.4 kmh NE 6.0 mph9.7 kmh 30.26 in1024.7 mb - 0.00 in0.0 mm 0.00 in0.0 mm
08:10 AM 53.1°F11.7°C 44.3°F6.8°C 72% 4.4 mph NE7.1 kmh NE 5.0 mph8.0 kmh 30.25 in1024.4 mb - 0.00 in0.0 mm 0.00 in0.0 mm
08:00 AM 53.1°F11.7°C 44.7°F7.1°C 73% 3.2 mph NE5.1 kmh NE 4.0 mph6.4 kmh 30.25 in1024.4 mb - 0.00 in0.0 mm 0.00 in0.0 mm
07:50 AM 52.9°F11.6°C 45.5°F7.5°C 76% 4.2 mph NE6.8 kmh NE 5.0 mph8.0 kmh 30.25 in1024.4 mb - 0.00 in0.0 mm 0.00 in0.0 mm
07:40 AM 53.5°F11.9°C 47.5°F8.6°C 80% 2.4 mph NE3.9 kmh NE 3.0 mph4.8 kmh 30.25 in1024.4 mb - 0.00 in0.0 mm 0.00 in0.0 mm
07:30 AM 53.5°F11.9°C 47.1°F8.4°C 79% 2.9 mph NE4.7 kmh NE 4.0 mph6.4 kmh 30.25 in1024.4 mb - 0.00 in0.0 mm 0.00 in0.0 mm
07:20 AM 53.5°F11.9°C 46.8°F8.2°C 78% 2.6 mph NE4.2 kmh NE 3.0 mph4.8 kmh 30.25 in1024.4 mb - 0.00 in0.0 mm 0.00 in0.0 mm
07:10 AM 53.7°F12.1°C 47.3°F8.5°C 79% 4.1 mph NE6.6 kmh NE 5.0 mph8.0 kmh 30.24 in1024.0 mb - 0.00 in0.0 mm 0.00 in0.0 mm
07:00 AM 53.7°F12.1°C 47.0°F8.3°C 78% 3.1 mph NE5.0 kmh NE 4.0 mph6.4 kmh 30.24 in1024.0 mb - 0.00 in0.0 mm 0.00 in0.0 mm
06:50 AM 53.6°F12.0°C 46.5°F8.1°C 77% 3.1 mph NE5.0 kmh NE 4.0 mph6.4 kmh 30.23 in1023.7 mb - 0.00 in0.0 mm 0.00 in0.0 mm
06:40 AM 53.6°F12.0°C 47.2°F8.4°C 79% 3.5 mph NE5.6 kmh NE 5.0 mph8.0 kmh 30.23 in1023.7 mb - 0.00 in0.0 mm 0.00 in0.0 mm
06:30 AM 53.7°F12.1°C 47.0°F8.3°C 78% 4.6 mph NE7.4 kmh NE 6.0 mph9.7 kmh 30.23 in1023.7 mb - 0.00 in0.0 mm 0.00 in0.0 mm
06:20 AM 54.0°F12.2°C 47.0°F8.3°C 77% 3.4 mph NE5.5 kmh NE 5.0 mph8.0 kmh 30.23 in1023.7 mb - 0.00 in0.0 mm 0.00 in0.0 mm
06:10 AM 54.5°F12.5°C 47.4°F8.6°C 77% 1.9 mph NE3.1 kmh NE 3.0 mph4.8 kmh 30.23 in1023.7 mb - 0.00 in0.0 mm 0.00 in0.0 mm
06:00 AM 54.6°F12.6°C 46.1°F7.8°C 73% 2.5 mph NE4.0 kmh NE 5.0 mph8.0 kmh 30.22 in1023.4 mb - 0.00 in0.0 mm 0.00 in0.0 mm
05:50 AM 55.0°F12.8°C 45.4°F7.4°C 70% 2.2 mph NE3.5 kmh NE 2.0 mph3.2 kmh 30.22 in1023.4 mb - 0.00 in0.0 mm 0.00 in0.0 mm
05:40 AM 55.0°F12.8°C 45.0°F7.2°C 69% 2.5 mph NE4.0 kmh NE 4.0 mph6.4 kmh 30.22 in1023.4 mb - 0.00 in0.0 mm 0.00 in0.0 mm
05:30 AM 55.1°F12.8°C 45.5°F7.5°C 70% Calm Calm -- 30.21 in1023.0 mb - 0.00 in0.0 mm 0.00 in0.0 mm
05:20 AM 55.0°F12.8°C 46.1°F7.8°C 72% 3.3 mph NE5.3 kmh NE 4.0 mph6.4 kmh 30.21 in1023.0 mb - 0.00 in0.0 mm 0.00 in0.0 mm
05:10 AM 55.1°F12.8°C 45.5°F7.5°C 70% 3.0 mph NE4.8 kmh NE 5.0 mph8.0 kmh 30.21 in1023.0 mb - 0.00 in0.0 mm 0.00 in0.0 mm
05:00 AM 54.9°F12.7°C 46.4°F8.0°C 73% 4.7 mph NE7.6 kmh NE 5.0 mph8.0 kmh 30.22 in1023.4 mb - 0.00 in0.0 mm 0.00 in0.0 mm
04:50 AM 54.5°F12.5°C 46.0°F7.8°C 73% 5.6 mph NE9.0 kmh NE 7.0 mph11.3 kmh 30.22 in1023.4 mb - 0.00 in0.0 mm 0.00 in0.0 mm
04:40 AM 54.5°F12.5°C 45.7°F7.6°C 72% 4.4 mph NE7.1 kmh NE 7.0 mph11.3 kmh 30.22 in1023.4 mb - 0.00 in0.0 mm 0.00 in0.0 mm
04:30 AM 54.6°F12.6°C 45.7°F7.6°C 72% 4.8 mph NE7.7 kmh NE 7.0 mph11.3 kmh 30.22 in1023.4 mb - 0.00 in0.0 mm 0.00 in0.0 mm
04:20 AM 54.6°F12.6°C 46.4°F8.0°C 74% 4.9 mph NE7.9 kmh NE 6.0 mph9.7 kmh 30.23 in1023.7 mb - 0.00 in0.0 mm 0.00 in0.0 mm
04:10 AM 54.4°F12.4°C 45.9°F7.7°C 73% 3.9 mph NE6.3 kmh NE 6.0 mph9.7 kmh 30.23 in1023.7 mb - 0.00 in0.0 mm 0.00 in0.0 mm
04:00 AM 54.6°F12.6°C 46.5°F8.1°C 74% 3.9 mph NE6.3 kmh NE 5.0 mph8.0 kmh 30.23 in1023.7 mb - 0.00 in0.0 mm 0.00 in0.0 mm
03:50 AM 55.0°F12.8°C 47.6°F8.7°C 76% 3.0 mph NE4.8 kmh NE 4.0 mph6.4 kmh 30.23 in1023.7 mb - 0.00 in0.0 mm 0.00 in0.0 mm
03:40 AM 54.6°F12.6°C 46.5°F8.1°C 74% 3.4 mph NE5.5 kmh NE 6.0 mph9.7 kmh 30.22 in1023.4 mb - 0.00 in0.0 mm 0.00 in0.0 mm
03:30 AM 54.7°F12.6°C 45.9°F7.7°C 72% 3.7 mph NE6.0 kmh NE 5.0 mph8.0 kmh 30.22 in1023.4 mb - 0.00 in0.0 mm 0.00 in0.0 mm
03:20 AM 55.4°F13.0°C 48.0°F8.9°C 76% 2.6 mph NE4.2 kmh NE 5.0 mph8.0 kmh 30.22 in1023.4 mb - 0.00 in0.0 mm 0.00 in0.0 mm
03:10 AM 55.1°F12.8°C 46.3°F7.9°C 72% 3.2 mph NE5.1 kmh NE 5.0 mph8.0 kmh 30.22 in1023.4 mb - 0.00 in0.0 mm 0.00 in0.0 mm
03:00 AM 55.1°F12.8°C 47.0°F8.3°C 74% 2.3 mph NE3.7 kmh NE 2.0 mph3.2 kmh 30.22 in1023.4 mb - 0.00 in0.0 mm 0.00 in0.0 mm
02:50 AM 55.1°F12.8°C 46.2°F7.9°C 72% 2.2 mph NE3.5 kmh NE 4.0 mph6.4 kmh 30.22 in1023.4 mb - 0.00 in0.0 mm 0.00 in0.0 mm
02:40 AM 55.7°F13.2°C 47.5°F8.6°C 74% 1.2 mph NE1.9 kmh NE 3.0 mph4.8 kmh 30.22 in1023.4 mb - 0.00 in0.0 mm 0.00 in0.0 mm
02:30 AM 55.4°F13.0°C 46.9°F8.3°C 73% 7.4 mph NE11.9 kmh NE 12.0 mph19.3 kmh 30.21 in1023.0 mb - 0.00 in0.0 mm 0.00 in0.0 mm
02:20 AM 55.7°F13.2°C 46.8°F8.2°C 72% 1.8 mph NE2.9 kmh NE 4.0 mph6.4 kmh 30.22 in1023.4 mb - 0.00 in0.0 mm 0.00 in0.0 mm
02:10 AM 55.9°F13.3°C 46.6°F8.1°C 71% 3.0 mph NE4.8 kmh NE 9.0 mph14.5 kmh 30.22 in1023.4 mb - 0.00 in0.0 mm 0.00 in0.0 mm
02:00 AM 56.2°F13.4°C 46.9°F8.3°C 71% 3.0 mph NE4.8 kmh NE 6.0 mph9.7 kmh 30.22 in1023.4 mb - 0.00 in0.0 mm 0.00 in0.0 mm
01:50 AM 56.0°F13.3°C 47.1°F8.4°C 72% 3.9 mph ENE6.3 kmh ENE 4.0 mph6.4 kmh 30.22 in1023.4 mb - 0.00 in0.0 mm 0.00 in0.0 mm
01:40 AM 55.9°F13.3°C 47.4°F8.6°C 73% 5.2 mph NE8.4 kmh NE 10.0 mph16.1 kmh 30.22 in1023.4 mb - 0.00 in0.0 mm 0.00 in0.0 mm
01:30 AM 56.3°F13.5°C 47.8°F8.8°C 73% 0.9 mph NE1.4 kmh NE 3.0 mph4.8 kmh 30.22 in1023.4 mb - 0.00 in0.0 mm 0.00 in0.0 mm
01:20 AM 56.0°F13.3°C 48.2°F9.0°C 75% 4.8 mph NE7.7 kmh NE 5.0 mph8.0 kmh 30.22 in1023.4 mb - 0.00 in0.0 mm 0.00 in0.0 mm
01:10 AM 56.0°F13.3°C 48.9°F9.4°C 77% 4.0 mph ENE6.4 kmh ENE 7.0 mph11.3 kmh 30.22 in1023.4 mb - 0.00 in0.0 mm 0.00 in0.0 mm
01:00 AM 56.2°F13.4°C 49.1°F9.5°C 77% 0.3 mph ENE0.5 kmh ENE 1.0 mph1.6 kmh 30.23 in1023.7 mb - 0.00 in0.0 mm 0.00 in0.0 mm
12:50 AM 56.2°F13.4°C 49.1°F9.5°C 77% 2.2 mph ENE3.5 kmh ENE 3.0 mph4.8 kmh 30.23 in1023.7 mb - 0.00 in0.0 mm 0.00 in0.0 mm
12:40 AM 56.2°F13.4°C 49.4°F9.7°C 78% 2.7 mph ENE4.3 kmh ENE 5.0 mph8.0 kmh 30.23 in1023.7 mb - 0.00 in0.0 mm 0.00 in0.0 mm
12:30 AM 55.8°F13.2°C 48.3°F9.1°C 76% 1.4 mph ENE2.3 kmh ENE 3.0 mph4.8 kmh 30.24 in1024.0 mb - 0.00 in0.0 mm 0.00 in0.0 mm
12:20 AM 55.5°F13.1°C 47.7°F8.7°C 75% 2.4 mph ENE3.9 kmh ENE 4.0 mph6.4 kmh 30.23 in1023.7 mb - 0.00 in0.0 mm 0.00 in0.0 mm
12:10 AM 55.3°F12.9°C 47.5°F8.6°C 75% 0.6 mph ENE1.0 kmh ENE 1.0 mph1.6 kmh 30.23 in1023.7 mb - 0.00 in0.0 mm 0.00 in0.0 mm
12:00 AM 55.5°F13.1°C 47.3°F8.5°C 74% 1.2 mph ENE1.9 kmh ENE 2.0 mph3.2 kmh 30.24 in1024.0 mb - 0.00 in0.0 mm 0.00 in0.0 mm